N0OQA Weather Reports


time (UTC)temp
C
wind
direction
speed
KPH
gust
KPH
rain 1hr
cm
rain 24hr
cm
rain mn
cm
humidity
%
barometer
mb
20230127233600 -9 300 17.7 25.7 0.00 0.00 0.00 72 1012.0
20230127232558 -8 302 20.9 32.2 0.00 0.00 0.00 71 1011.8
20230127232058 -8 328 20.9 29.0 0.00 0.00 0.00 71 1011.7
20230127231558 -8 288 19.3 27.4 0.00 0.00 0.00 71 1011.5
20230127231057 -8 276 19.3 27.4 0.00 0.00 0.00 70 1011.4
20230127230557 -8 285 17.7 24.1 0.00 0.00 0.00 70 1011.1
20230127230057 -8 290 20.9 33.8 0.00 0.00 0.00 70 1011.0
20230127225557 -8 319 19.3 27.4 0.00 0.00 0.00 70 1010.6
20230127225055 -8 304 20.9 32.2 0.00 0.00 0.00 70 1010.5
20230127224555 -8 300 17.7 24.1 0.00 0.00 0.00 70 1010.4
20230127224055 -8 294 20.9 25.7 0.00 0.00 0.00 70 1010.3
20230127223554 -8 322 19.3 30.6 0.00 0.00 0.00 69 1010.3
20230127223054 -7 281 22.5 30.6 0.00 0.00 0.00 69 1010.1
20230127222554 -7 298 19.3 27.4 0.00 0.00 0.00 68 1008.9
20230127221053 -7 277 20.9 27.4 0.00 0.00 0.00 69 1009.8
20230127220551 -7 291 20.9 32.2 0.00 0.00 0.00 69 1009.7
20230127220051 -7 314 19.3 29.0 0.00 0.00 0.00 68 1009.3
20230127215551 -7 326 24.1 29.0 0.00 0.00 0.00 68 1009.2
20230127215050 -7 318 25.7 33.8 0.00 0.00 0.00 67 1009.0
20230127214550 -7 318 29.0 48.3 0.00 0.00 0.00 67 1009.0
20230127214050 -7 280 27.4 40.2 0.00 0.00 0.00 67 1008.9
20230127213549 -6 315 25.7 38.6 0.00 0.00 0.00 66 1008.8
20230127212549 -6 322 20.9 27.4 0.00 0.00 0.00 68 1008.7
20230127211549 -6 285 29.0 43.5 0.00 0.00 0.00 68 1008.6
20230127205546 -7 312 25.7 40.2 0.00 0.00 0.00 68 1008.2
20230127204545 -7 322 33.8 43.5 0.00 0.00 0.00 69 1008.1
20230127204044 -7 311 32.2 41.8 0.00 0.00 0.00 69 1007.8
20230127203540 -7 316 32.2 46.7 0.00 0.00 0.00 68 1008.0
20230127203041 -7 290 25.7 33.8 0.00 0.00 0.00 69 1007.6
20230127201539 -7 322 32.2 51.5 0.00 0.00 0.00 70 1007.5
20230127201039 -6 325 32.2 46.7 0.00 0.00 0.00 70 1007.5
20230127200537 -6 284 27.4 40.2 0.00 0.00 0.00 72 1007.4
20230127200038 -7 245 27.4 40.2 0.00 0.00 0.00 72 1007.3
20230127195537 -7 295 27.4 40.2 0.00 0.00 0.00 73 1007.2
20230127195038 -7 295 33.8 49.9 0.00 0.00 0.00 72 1007.2
20230127194537 -6 304 27.4 41.8 0.00 0.00 0.00 73 1007.0
20230127194036 -7 315 32.2 51.5 0.00 0.00 0.00 74 1006.9
20230127193536 -7 293 33.8 49.9 0.00 0.00 0.00 74 1006.9
20230127193035 -6 293 35.4 46.7 0.00 0.00 0.00 74 1006.9
20230127192535 -6 269 30.6 41.8 0.00 0.00 0.00 73 1006.8
20230127192035 -6 304 24.1 37.0 0.00 0.00 0.00 75 1006.6
20230127191535 -6 322 30.6 48.3 0.00 0.00 0.00 75 1006.5
20230127191033 -6 287 32.2 48.3 0.00 0.00 0.00 75 1006.6
20230127190533 -6 298 32.2 45.1 0.00 0.00 0.00 75 1006.5
20230127190033 -6 294 27.4 48.3 0.00 0.00 0.00 75 1006.5
20230127185532 -6 309 33.8 43.5 0.00 0.00 0.00 76 1006.5
20230127185032 -6 291 30.6 41.8 0.00 0.00 0.00 76 1006.4
20230127184532 -6 321 30.6 45.1 0.00 0.00 0.00 76 1006.3
20230127184031 -6 315 33.8 49.9 0.00 0.00 0.00 75 1006.3
20230127183531 -6 309 25.7 37.0 0.00 0.00 0.00 77 1006.2
20230127183030 -6 236 27.4 38.6 0.00 0.00 0.00 77 1006.1
20230127182530 -6 266 32.2 46.7 0.00 0.00 0.00 77 1004.0
20230127182029 -6 283 27.4 41.8 0.00 0.00 0.00 77 1005.8
20230127181529 -6 312 33.8 40.2 0.00 0.00 0.00 78 1005.8
20230127181028 -6 294 25.7 38.6 0.00 0.00 0.00 78 1005.8
20230127180528 -6 297 25.7 41.8 0.00 0.00 0.00 78 1005.7
20230127180028 -6 290 33.8 40.2 0.00 0.00 0.00 78 1005.7
20230127175527 -6 267 30.6 43.5 0.00 0.00 0.00 78 1005.7
20230127175027 -6 297 30.6 43.5 0.00 0.00 0.00 78 1005.4
20230127174527 -6 309 30.6 46.7 0.00 0.00 0.00 79 1005.3
20230127174026 -6 285 30.6 45.1 0.00 0.00 0.00 79 1005.3
20230127173526 -6 322 29.0 40.2 0.00 0.00 0.00 79 1005.1
20230127173027 -6 288 27.4 38.6 0.00 0.00 0.00 80 1005.0
20230127172524 -6 308 25.7 35.4 0.00 0.00 0.00 79 1004.9
20230127172022 -6 291 27.4 40.2 0.00 0.00 0.00 79 1005.0
20230127171620 -6 294 30.6 45.1 0.00 0.00 0.00 80 1004.8
20230127171522 -6 294 30.6 45.1 0.00 0.00 0.00 80 1004.8
20230127170522 -6 314 29.0 48.3 0.00 0.00 0.00 81 1004.7
20230127170020 -6 321 32.2 48.3 0.00 0.00 0.00 82 1004.7
20230127165520 -6 300 27.4 43.5 0.00 0.00 0.00 82 1004.7
20230127165020 -6 314 27.4 43.5 0.00 0.00 0.00 83 1004.5
20230127163518 -5 290 30.6 43.5 0.00 0.00 0.00 85 1004.0
20230127162517 -6 294 32.2 45.1 0.00 0.00 0.00 83 1003.0
20230127161016 -5 294 27.4 40.2 0.00 0.00 0.00 86 1003.3
20230127160516 -5 287 25.7 37.0 0.00 0.00 0.00 87 1003.3
20230127160015 -5 291 33.8 49.9 0.00 0.00 0.00 86 1003.2
20230127155515 -5 284 30.6 38.6 0.00 0.00 0.00 86 1002.9
20230127155015 -5 287 32.2 51.5 0.00 0.00 0.00 86 1003.0
20230127154514 -5 298 30.6 38.6 0.00 0.00 0.00 87 1002.7
20230127154014 -5 288 35.4 56.3 0.00 0.00 0.00 87 1002.5
20230127153514 -4 293 32.2 48.3 0.00 0.00 0.00 87 1002.2
20230127152513 -4 270 25.7 33.8 0.00 0.00 0.00 87 1001.9
20230127152013 -3 322 29.0 43.5 0.00 0.00 0.00 87 1001.7
20230127151513 -3 284 29.0 41.8 0.00 0.00 0.00 88 1001.5
20230127151013 -3 280 24.1 40.2 0.00 0.00 0.00 88 1001.3
20230127150512 -3 304 25.7 37.0 0.00 0.00 0.00 90 1001.1
20230127150012 -3 304 27.4 45.1 0.00 0.00 0.00 89 1000.9
20230127145512 -3 302 24.1 37.0 0.00 0.00 0.00 89 1000.8
20230127145011 -3 284 32.2 48.3 0.00 0.00 0.00 88 1000.7
20230127144511 -3 285 29.0 40.2 0.00 0.00 0.00 88 1000.5
20230127144010 -2 314 30.6 46.7 0.00 0.00 0.00 90 1000.3
20230127143511 -2 255 32.2 49.9 0.00 0.00 0.00 91 1000.2
20230127142509 -2 294 22.5 32.2 0.00 0.00 0.00 92 999.5
20230127142009 -2 326 25.7 38.6 0.00 0.00 0.00 92 999.4
20230127141509 -2 319 22.5 41.8 0.00 0.00 0.00 93 999.3
20230127141008 -1 294 22.5 33.8 0.00 0.00 0.00 94 999.1
20230127140507 -1 294 33.8 48.3 0.00 0.00 0.00 93 999.0
20230127140007 -1 273 33.8 49.9 0.00 0.00 0.00 93 998.9
20230127134507 0 308 27.4 37.0 0.00 0.00 0.00 95 998.0
20230127134006 0 294 27.4 37.0 0.00 0.00 0.00 96 997.9
20230127133006 0 287 19.3 25.7 0.00 0.00 0.00 99 997.5
20230127132502 0 311 30.6 40.2 0.00 0.00 0.00 99 997.4
20230127132002 0 319 29.0 43.5 0.00 0.00 0.00 100 997.3
20230127131502 0 308 22.5 33.8 0.00 0.00 0.00 100 997.2
20230127131001 0 291 16.1 24.1 0.00 0.00 0.00 100 997.2
20230127130501 0 295 14.5 17.7 0.00 0.00 0.00 100 997.1
20230127130001 0 311 20.9 30.6 0.00 0.00 0.00 100 997.0
20230127125500 0 314 24.1 29.0 0.00 0.00 0.00 100 997.0
20230127125000 0 322 24.1 48.3 0.00 0.00 0.00 100 996.8
20230127124500 0 263 6.4 9.7 0.00 0.00 0.00 100 996.6
20230127123959 0 287 6.4 8.0 0.00 0.00 0.00 100 996.4
20230127123459 0 321 8.0 9.7 0.00 0.00 0.00 100 996.2
20230127122458 -1 218 9.7 12.9 0.00 0.00 0.00 100 994.9
20230127121957 -1 232 9.7 16.1 0.00 0.00 0.00 100 995.9
20230127121457 -1 210 8.0 11.3 0.00 0.00 0.00 100 995.9
20230127120957 -1 259 6.4 9.7 0.00 0.00 0.00 100 995.8
20230127120456 -1 212 8.0 9.7 0.00 0.00 0.00 100 995.8
20230127115956 -1 225 6.4 9.7 0.00 0.00 0.00 100 995.9
20230127115455 -1 215 8.0 9.7 0.00 0.00 0.00 100 995.9
20230127114955 -1 217 8.0 9.7 0.00 0.00 0.00 100 995.9
20230127114454 -2 183 8.0 8.0 0.00 0.00 0.00 100 995.8
20230127113953 -2 222 9.7 12.9 0.00 0.00 0.00 100 995.9
20230127113455 -2 221 11.3 16.1 0.00 0.00 0.00 100 995.8
20230127112954 -2 200 11.3 16.1 0.00 0.00 0.00 100 995.8
20230127112453 -2 146 9.7 12.9 0.00 0.00 0.00 100 995.7
20230127111952 -2 183 8.0 9.7 0.00 0.00 0.00 100 995.8
20230127111453 -2 233 6.4 9.7 0.00 0.00 0.00 100 995.8
20230127110951 -2 194 8.0 9.7 0.00 0.00 0.00 100 995.9
20230127105449 -3 155 8.0 11.3 0.00 0.00 0.00 100 996.1
20230127104949 -3 225 11.3 16.1 0.00 0.00 0.00 100 996.1
20230127104449 -3 149 11.3 16.1 0.00 0.00 0.00 100 996.1
20230127103949 -3 159 9.7 14.5 0.00 0.00 0.00 100 996.0
20230127103448 -3 204 11.3 14.5 0.00 0.00 0.00 100 996.1
20230127102947 -3 146 8.0 11.3 0.00 0.00 0.00 100 996.1
20230127102447 -3 190 8.0 9.7 0.00 0.00 0.13 98 994.8
20230127101946 -3 177 9.7 11.3 0.00 0.00 0.13 100 996.2
20230127101446 -4 229 8.0 11.3 0.00 0.00 0.13 100 996.3
20230127100946 -4 191 9.7 14.5 0.00 0.00 0.13 100 996.2
20230127100446 -4 169 11.3 12.9 0.00 0.00 0.13 100 996.4
20230127095945 -4 208 11.3 14.5 0.00 0.00 0.13 100 996.6
20230127095445 -4 122 11.3 14.5 0.00 0.00 0.13 100 996.5
20230127094945 -4 169 9.7 14.5 0.00 0.00 0.10 100 996.6
20230127094445 -5 208 9.7 14.5 0.00 0.00 0.10 100
20230127093944 -5 208 9.7 14.5 0.00 0.00 0.08 100 996.8
20230127093444 -5 152 11.3 17.7 0.00 0.00 0.05 100 997.1
20230127092944 -5 186 9.7 16.1 0.00 0.00 0.05 100 997.2
20230127092443 -5 167 11.3 17.7 0.00 0.00 0.05 100 997.3
20230127091943 -5 172 11.3 12.9 0.00 0.00 0.05 99 997.3
20230127091443 -5 174 11.3 16.1 0.00 0.00 0.05 99 997.4
20230127090943 -5 180 11.3 17.7 0.00 0.00 0.05 99 997.5
20230127090442 -5 225 11.3 14.5 0.00 0.00 0.05 99 997.6
20230127085942 -5 186 12.9 17.7 0.00 0.00 0.05 99 997.7
20230127085442 -5 146 12.9 17.7 0.00 0.00 0.05 99 997.8
20230127084942 -5 207 11.3 19.3 0.00 0.00 0.05 99 997.9
20230127084440 -5 177 11.3 14.5 0.00 0.00 0.05 99 998.0
20230127083939 -5 201 11.3 12.9 0.00 0.00 0.05 99 998.1
20230127083439 -5 181 11.3 16.1 0.00 0.00 0.05 99 998.2
20230127082939 -5 183 12.9 24.1 0.00 0.00 0.05 99 998.4
20230127082438 -6 198 14.5 24.1 0.00 0.00 0.05 100 996.1
20230127081438 -6 197 12.9 17.7 0.00 0.00 0.05 100 998.7
20230127080437 -6 152 11.3 16.1 0.00 0.00 0.05 99 998.9
20230127075937 -6 170 11.3 16.1 0.00 0.00 0.05 99 999.0
20230127075437 -6 139 11.3 16.1 0.00 0.00 0.05 99 999.0
20230127074936 -6 167 14.5 19.3 0.00 0.00 0.05 98 999.1
20230127074436 -6 173 12.9 20.9 0.00 0.00 0.05 98 999.3
20230127074108 -7 141 12.9 22.5 0.00 0.00 0.05 98 999.5
20230127073935 -7 141 12.9 22.5 0.00 0.00 0.05 98 999.5
20230127073435 -7 131 12.9 22.5 0.00 0.00 0.05 98 999.7
20230127072935 -7 179 14.5 22.5 0.00 0.00 0.05 98 999.9
20230127071934 -7 159 11.3 16.1 0.00 0.00 0.05 98 1000.2
20230127071433 -7 172 12.9 16.1 0.00 0.00 0.05 98 1000.4
20230127070935 -7 183 14.5 20.9 0.00 0.00 0.05 98 1000.5
20230127070432 -7 156 12.9 19.3 0.00 0.00 0.05 98 1000.5
20230127065930 -7 184 14.5 19.3 0.00 0.00 0.05 98 1000.6
20230127065430 -7 152 14.5 19.3 0.00 0.00 0.05 98 1000.7
20230127064929 -7 170 11.3 14.5 0.00 0.00 0.05 98 1000.8
20230127064429 -8 135 12.9 16.1 0.00 0.00 0.05 98 1001.0
20230127063428 -8 155 11.3 17.7 0.00 0.00 0.03 97 1001.4
20230127062926 -8 131 12.9 19.3 0.00 0.00 0.03 97 1001.7
20230127062426 -8 179 11.3 16.1 0.00 0.00 0.03 97 1001.4
20230127061926 -8 186 12.9 17.7 0.00 0.00 0.03 97 1002.0
20230127061426 -8 184 14.5 20.9 0.00 0.00 0.03 97 1002.2
20230127060925 -8 172 16.1 24.1 0.00 0.00 0.03 97 1002.5
20230127060424 -8 163 14.5 17.7 0.00 0.00 0.03 97 1002.6
20230127055923 -8 191 12.9 19.3 0.00 0.00 0.03 96 1002.8
20230127055423 -8 211 14.5 20.9 0.00 0.00 0.03 96 1002.9
20230127054422 -8 174 16.1 24.1 0.00 0.00 0.00 95 1003.2
20230127053923 -8 174 12.9 20.9 0.00 0.00 0.00 95 1003.2
20230127053422 -8 159 16.1 32.2 0.00 0.00 0.00 95 1003.5
20230127052922 -8 177 11.3 16.1 0.00 0.00 0.00 94 1003.7
20230127052421 -8 150 12.9 22.5 0.00 0.00 0.00 94 1003.9
20230127051921 -8 150 16.1 20.9 0.00 0.00 0.00 94 1003.9
20230127051421 -9 174 12.9 20.9 0.00 0.00 0.00 93 1004.1
20230127050917 -9 160 14.5 24.1 0.00 0.00 0.00 93 1004.3
20230127050418 -9 136 17.7 27.4 0.00 0.00 0.00 93 1004.4
20230127045917 -9 120 14.5 22.5 0.00 0.00 0.00 93 1004.6
20230127045417 -9 122 14.5 20.9 0.00 0.00 0.00 92 1004.7
20230127044915 -9 117 16.1 29.0 0.00 0.00 0.00 92 1004.8
20230127044416 -9 158 14.5 24.1 0.00 0.00 0.00 92 1004.9
20230127043915 -9 184 14.5 24.1 0.00 0.00 0.00 92 1005.3
20230127043415 -10 181 16.1 20.9 0.00 0.00 0.00 92 1005.4
20230127042914 -10 136 16.1 29.0 0.00 0.00 0.00 92 1005.7
20230127042414 -10 111 14.5 19.3 0.00 0.00 0.00 90 1005.9
20230127041914 -10 191 12.9 19.3 0.00 0.00 0.00 91 1006.2
20230127041413 -10 165 12.9 22.5 0.00 0.00 0.00 91 1006.6
20230127040913 -10 145 12.9 22.5 0.00 0.00 0.00 91 1006.8
20230127040413 -10 162 11.3 16.1 0.00 0.00 0.00 91 1007.1
20230127035912 -10 148 12.9 22.5 0.00 0.00 0.00 91 1007.2
20230127035412 -10 148 11.3 16.1 0.00 0.00 0.00 91 1007.3
20230127034911 -10 163 8.0 16.1 0.00 0.00 0.00 91 1007.4
20230127034411 -10 179 11.3 16.1 0.00 0.00 0.00 91 1007.3
20230127033911 -10 183 14.5 22.5 0.00 0.00 0.00 92 1007.5
20230127033411 -10 173 11.3 17.7 0.00 0.00 0.00 92 1007.6
20230127032910 -10 159 14.5 19.3 0.00 0.00 0.00 92 1007.6
20230127032409 -10 142 12.9 19.3 0.00 0.00 0.00 92 1007.7
20230127031908 -10 143 16.1 17.7 0.00 0.00 0.00 92 1008.1
20230127031407 -10 183 16.1 19.3 0.00 0.00 0.00 92 1008.4
20230127030907 -10 62 12.9 17.7 0.00 0.00 0.00 92 1008.7
20230127030407 -10 188 14.5 19.3 0.00 0.00 0.00 92 1008.9
20230127025905 -10 132 11.3 17.7 0.00 0.00 0.00 92 1009.0
20230127024904 -10 167 12.9 17.7 0.00 0.00 0.00 92 1009.2
20230127024401 -10 153 11.3 16.1 0.00 0.00 0.00 92 1009.3
20230127023901 -10 169 11.3 16.1 0.00 0.00 0.00 92 1009.3
20230127023400 -10 156 11.3 12.9 0.00 0.00 0.00 92 1009.4
20230127022900 -10 191 11.3 22.5 0.00 0.00 0.00 92 1009.5
20230127022359 -10 146 11.3 16.1 0.00 0.00 0.00 91 1009.4
20230127021859 -10 135 11.3 19.3 0.00 0.00 0.00 92 1009.5
20230127020900 -10 139 12.9 19.3 0.00 0.00 0.00 92 1010.0
20230127020355 -10 211 11.3 16.1 0.00 0.00 0.00 92 1010.3
20230127015856 -10 187 9.7 12.9 0.00 0.00 0.00 92 1010.5
20230127015355 -10 145 11.3 19.3 0.00 0.00 0.00 91 1010.5
20230127014854 -10 162 12.9 22.5 0.00 0.00 0.00 91 1010.6
20230127014354 -10 166 12.9 16.1 0.00 0.00 0.00 91 1010.8
20230127013854 -10 160 11.3 12.9 0.00 0.00 0.00 91 1010.9
20230127013353 -10 155 11.3 14.5 0.00 0.00 0.00 91 1011.0
20230127012853 -10 194 12.9 17.7 0.00 0.00 0.00 90 1011.1
20230127012353 -10 120 11.3 14.5 0.00 0.00 0.00 90 1011.3
20230127011853 -10 195 11.3 14.5 0.00 0.00 0.00 90 1011.5
20230127010351 -10 158 14.5 25.7 0.00 0.00 0.00 88 1012.3
20230127005852 -10 180 12.9 16.1 0.00 0.00 0.00 88 1012.4
20230127005349 -10 211 8.0 11.3 0.00 0.00 0.00 88 1012.6
20230127004348 -10 225 9.7 12.9 0.00 0.00 0.00 87 1013.0
20230127003849 -10 211 8.0 9.7 0.00 0.00 0.00 87 1013.0
20230127003347 -10 174 11.3 16.1 0.00 0.00 0.00 87 1012.8
20230127002847 -10 179 9.7 16.1 0.00 0.00 0.00 87 1012.9
20230127002347 -10 177 8.0 11.3 0.00 0.00 0.00 85 1012.1
20230127001846 -10 173 8.0 9.7 0.00 0.00 0.00 87 1013.0
20230127000846 -10 184 6.4 9.7 0.00 0.00 0.00 86 1013.2
20230127000346 -10 208 6.4 9.7 0.00 0.00 0.00 86 1013.2
20230126235845 -10 215 8.0 9.7 0.00 0.00 0.00 86 1013.2
20230126235345 -10 203 6.4 9.7 0.00 0.00 0.00 86 1013.2
20230126234846 -10 184 6.4 8.0 0.00 0.00 0.00 85 1013.2
20230126234344 -10 167 9.7 11.3 0.00 0.00 0.00 85 1013.1